ANA240 RJFF-RJTT
Flight info
| Callsign | ANA240 |
|---|---|
| Flight time | N/A |
| Altitude | 39000 |
| Route | IPRIR Y231 OMKAT Y235 FLUTE Y23 ARTIC Y71 XAC |
| Aircraft | B772/H-SDE2E3FGHIJ5LORVWXY/LB1D1 |
Departure
| Time | 2026-05-08 22:49 |
|---|---|
| Airport | Fukuoka Airport (RJFF) |
Arrival
| Time | N/A |
|---|---|
| Airport | Tokyo Haneda International Airport (RJTT) |
| Time | Latitude | Longitude | Altitude | Speed | Heading |
|---|---|---|---|---|---|
| 2026-05-08 22:29 | 33.59036 | 130.45081 | 47 ft | 0 kts | 60° |
| 2026-05-08 22:41 | 33.59034 | 130.45076 | 47 ft | 2 kts | 63° |
| 2026-05-08 22:41 | 33.59028 | 130.45059 | 47 ft | 2 kts | 68° |
| 2026-05-08 22:41 | 33.59022 | 130.45044 | 47 ft | 2 kts | 66° |
| 2026-05-08 22:42 | 33.59016 | 130.45027 | 47 ft | 2 kts | 65° |
| 2026-05-08 22:42 | 33.59012 | 130.45016 | 47 ft | 1 kts | 64° |
| 2026-05-08 22:42 | 33.59004 | 130.45007 | 47 ft | 1 kts | 4° |
| 2026-05-08 22:42 | 33.58995 | 130.45009 | 47 ft | 1 kts | 327° |
| 2026-05-08 22:43 | 33.58991 | 130.45012 | 47 ft | 0 kts | 329° |
| 2026-05-08 22:44 | 33.58997 | 130.45007 | 47 ft | 1 kts | 330° |
| 2026-05-08 22:44 | 33.59026 | 130.44989 | 47 ft | 7 kts | 334° |
| 2026-05-08 22:44 | 33.59092 | 130.44951 | 47 ft | 13 kts | 333° |
| 2026-05-08 22:44 | 33.59189 | 130.44890 | 47 ft | 18 kts | 329° |
| 2026-05-08 22:45 | 33.59223 | 130.44867 | 47 ft | 18 kts | 328° |
| 2026-05-08 22:46 | 33.59275 | 130.44829 | 47 ft | 16 kts | 330° |
| 2026-05-08 22:46 | 33.59328 | 130.44794 | 47 ft | 18 kts | 330° |
| 2026-05-08 22:46 | 33.59401 | 130.44742 | 47 ft | 20 kts | 330° |
| 2026-05-08 22:47 | 33.59445 | 130.44713 | 47 ft | 22 kts | 330° |
| 2026-05-08 22:47 | 33.59495 | 130.44679 | 47 ft | 23 kts | 329° |
| 2026-05-08 22:47 | 33.59567 | 130.44626 | 47 ft | 25 kts | 327° |
| 2026-05-08 22:48 | 33.59630 | 130.44583 | 47 ft | 27 kts | 331° |
| 2026-05-08 22:48 | 33.59739 | 130.44487 | 47 ft | 19 kts | 298° |
| 2026-05-08 22:48 | 33.59669 | 130.44353 | 47 ft | 22 kts | 201° |
| 2026-05-08 22:48 | 33.59535 | 130.44431 | 47 ft | 21 kts | 151° |
| 2026-05-08 22:49 | 33.59325 | 130.44571 | 47 ft | 44 kts | 150° |
| 2026-05-08 22:49 | 33.57882 | 130.45537 | 306 ft | 184 kts | 152° |
| 2026-05-08 22:49 | 33.56690 | 130.46236 | 1155 ft | 208 kts | 153° |
| 2026-05-08 22:50 | 33.55432 | 130.46930 | 2334 ft | 198 kts | 151° |
| 2026-05-08 22:50 | 33.54157 | 130.47714 | 2946 ft | 216 kts | 149° |
| 2026-05-08 22:50 | 33.52781 | 130.48584 | 3553 ft | 234 kts | 149° |
| 2026-05-08 22:50 | 33.51277 | 130.49535 | 4191 ft | 251 kts | 150° |
| 2026-05-08 22:51 | 33.49689 | 130.50539 | 4825 ft | 268 kts | 150° |
| 2026-05-08 22:51 | 33.47992 | 130.51608 | 5520 ft | 281 kts | 151° |
| 2026-05-08 22:51 | 33.46246 | 130.52707 | 6350 ft | 288 kts | 152° |
| 2026-05-08 22:51 | 33.46108 | 130.52792 | 6421 ft | 289 kts | 152° |
| 2026-05-08 22:52 | 33.45866 | 130.52945 | 6542 ft | 289 kts | 152° |
| 2026-05-08 22:52 | 33.44075 | 130.54060 | 7294 ft | 299 kts | 152° |
| 2026-05-08 22:52 | 33.43403 | 130.54480 | 7649 ft | 300 kts | 152° |
| 2026-05-08 22:53 | 33.43151 | 130.54639 | 7794 ft | 299 kts | 152° |
| 2026-05-08 22:53 | 33.41322 | 130.55785 | 8474 ft | 304 kts | 153° |
| 2026-05-08 22:53 | 33.39429 | 130.56972 | 9341 ft | 308 kts | 153° |
| 2026-05-08 22:53 | 33.37550 | 130.58151 | 10207 ft | 311 kts | 154° |
| 2026-05-08 22:54 | 33.35589 | 130.59381 | 10803 ft | 325 kts | 154° |
| 2026-05-08 22:54 | 33.33619 | 130.60823 | 11294 ft | 343 kts | 144° |
| 2026-05-08 22:54 | 33.31794 | 130.62782 | 11806 ft | 360 kts | 132° |
| 2026-05-08 22:54 | 33.30256 | 130.65234 | 12278 ft | 377 kts | 121° |
| 2026-05-08 22:55 | 33.29107 | 130.68150 | 12723 ft | 392 kts | 108° |
| 2026-05-08 22:55 | 33.28466 | 130.71381 | 13144 ft | 406 kts | 95° |
| 2026-05-08 22:55 | 33.28423 | 130.74770 | 13625 ft | 415 kts | 82° |
| 2026-05-08 22:55 | 33.29022 | 130.78151 | 14325 ft | 416 kts | 69° |
| 2026-05-08 22:56 | 33.29925 | 130.81429 | 15104 ft | 420 kts | 68° |
| 2026-05-08 22:56 | 33.30827 | 130.84781 | 15830 ft | 426 kts | 70° |
| 2026-05-08 22:56 | 33.31506 | 130.88225 | 16408 ft | 436 kts | 74° |
| 2026-05-08 22:56 | 33.32136 | 130.91779 | 17042 ft | 443 kts | 74° |
| 2026-05-08 22:57 | 33.32774 | 130.95438 | 17742 ft | 447 kts | 74° |
| 2026-05-08 22:57 | 33.33406 | 130.99080 | 18348 ft | 454 kts | 75° |
| 2026-05-08 22:57 | 33.34045 | 131.02777 | 18901 ft | 462 kts | 75° |
| 2026-05-08 22:57 | 33.34693 | 131.06546 | 19465 ft | 469 kts | 75° |
| 2026-05-08 22:58 | 33.35356 | 131.10408 | 20032 ft | 475 kts | 75° |
| 2026-05-08 22:58 | 33.36022 | 131.14302 | 20618 ft | 481 kts | 75° |
| 2026-05-08 22:58 | 33.36690 | 131.18221 | 21160 ft | 487 kts | 75° |
| 2026-05-08 22:58 | 33.37373 | 131.22229 | 21656 ft | 494 kts | 76° |
| 2026-05-08 22:59 | 33.38058 | 131.26265 | 22160 ft | 501 kts | 76° |
| 2026-05-08 22:59 | 33.38758 | 131.30392 | 22626 ft | 508 kts | 76° |
| 2026-05-08 22:59 | 33.39460 | 131.34551 | 23155 ft | 513 kts | 76° |
| 2026-05-08 22:59 | 33.40161 | 131.38709 | 23772 ft | 516 kts | 76° |
| 2026-05-08 23:00 | 33.40877 | 131.42967 | 24204 ft | 524 kts | 76° |
| 2026-05-08 23:00 | 33.41598 | 131.47260 | 24607 ft | 532 kts | 76° |
| 2026-05-08 23:00 | 33.42324 | 131.51590 | 25173 ft | 536 kts | 77° |
| 2026-05-08 23:00 | 33.43050 | 131.55937 | 25653 ft | 541 kts | 76° |
| 2026-05-08 23:01 | 33.43793 | 131.60393 | 26085 ft | 547 kts | 77° |
| 2026-05-08 23:01 | 33.44537 | 131.64867 | 26515 ft | 554 kts | 77° |
| 2026-05-08 23:01 | 33.45293 | 131.69423 | 26894 ft | 560 kts | 77° |
| 2026-05-08 23:01 | 33.46057 | 131.74036 | 27301 ft | 566 kts | 78° |
| 2026-05-08 23:02 | 33.46821 | 131.78662 | 27723 ft | 570 kts | 78° |
| 2026-05-08 23:02 | 33.47585 | 131.83296 | 28194 ft | 574 kts | 78° |
| 2026-05-08 23:02 | 33.48352 | 131.87967 | 28572 ft | 579 kts | 78° |
| 2026-05-08 23:02 | 33.49138 | 131.92758 | 28939 ft | 585 kts | 78° |
| 2026-05-08 23:03 | 33.49923 | 131.97557 | 29349 ft | 589 kts | 79° |
| 2026-05-08 23:03 | 33.50704 | 132.02345 | 29853 ft | 591 kts | 79° |
| 2026-05-08 23:03 | 33.51488 | 132.07164 | 30435 ft | 592 kts | 78° |
| 2026-05-08 23:03 | 33.52280 | 132.12048 | 31064 ft | 591 kts | 79° |
| 2026-05-08 23:04 | 33.53059 | 132.16858 | 31713 ft | 589 kts | 78° |
| 2026-05-08 23:04 | 33.53835 | 132.21664 | 32275 ft | 589 kts | 79° |
| 2026-05-08 23:04 | 33.54613 | 132.26497 | 32792 ft | 590 kts | 79° |
| 2026-05-08 23:04 | 33.55490 | 132.31277 | 33339 ft | 591 kts | 73° |
| 2026-05-08 23:05 | 33.56754 | 132.35910 | 33897 ft | 589 kts | 68° |
| 2026-05-08 23:05 | 33.58134 | 132.40546 | 34442 ft | 587 kts | 68° |
| 2026-05-08 23:05 | 33.59489 | 132.45081 | 34973 ft | 585 kts | 68° |
| 2026-05-08 23:05 | 33.60851 | 132.49641 | 35560 ft | 581 kts | 68° |
| 2026-05-08 23:06 | 33.62204 | 132.54190 | 36211 ft | 579 kts | 68° |
| 2026-05-08 23:06 | 33.63560 | 132.58756 | 36754 ft | 577 kts | 68° |
| 2026-05-08 23:06 | 33.64899 | 132.63275 | 37248 ft | 576 kts | 67° |
| 2026-05-08 23:06 | 33.66226 | 132.67764 | 37594 ft | 576 kts | 68° |
| 2026-05-08 23:07 | 33.67563 | 132.72296 | 37771 ft | 579 kts | 67° |
| 2026-05-08 23:07 | 33.68914 | 132.76881 | 38006 ft | 581 kts | 68° |
| 2026-05-08 23:07 | 33.70262 | 132.81468 | 38348 ft | 579 kts | 67° |
| 2026-05-08 23:07 | 33.71594 | 132.86011 | 38754 ft | 576 kts | 68° |
| 2026-05-08 23:08 | 33.72916 | 132.90524 | 38986 ft | 576 kts | 67° |
| 2026-05-08 23:08 | 33.74245 | 132.95071 | 39120 ft | 577 kts | 68° |
| 2026-05-08 23:08 | 33.76893 | 133.04147 | 39118 ft | 577 kts | 67° |
| 2026-05-08 23:09 | 33.79538 | 133.13246 | 39111 ft | 578 kts | 68° |
| 2026-05-08 23:09 | 33.82171 | 133.22328 | 39121 ft | 577 kts | 68° |
| 2026-05-08 23:10 | 33.84804 | 133.31442 | 39130 ft | 578 kts | 68° |
| 2026-05-08 23:10 | 33.87429 | 133.40556 | 39135 ft | 577 kts | 68° |
| 2026-05-08 23:11 | 33.90046 | 133.49672 | 39142 ft | 579 kts | 68° |
| 2026-05-08 23:11 | 33.92670 | 133.58839 | 39149 ft | 578 kts | 68° |
| 2026-05-08 23:12 | 33.95276 | 133.67972 | 39107 ft | 579 kts | 69° |
| 2026-05-08 23:12 | 33.97892 | 133.77173 | 39122 ft | 579 kts | 68° |
| 2026-05-08 23:13 | 34.00484 | 133.86317 | 39119 ft | 579 kts | 69° |
| 2026-05-08 23:13 | 34.03080 | 133.95515 | 39123 ft | 581 kts | 69° |
| 2026-05-08 23:14 | 34.05017 | 134.04942 | 39140 ft | 581 kts | 76° |
| 2026-05-08 23:14 | 34.06755 | 134.14438 | 39144 ft | 582 kts | 76° |
| 2026-05-08 23:15 | 34.08489 | 134.23947 | 39146 ft | 581 kts | 77° |
| 2026-05-08 23:15 | 34.10222 | 134.33484 | 39143 ft | 581 kts | 77° |
| 2026-05-08 23:16 | 34.11924 | 134.42879 | 39140 ft | 581 kts | 77° |
| 2026-05-08 23:16 | 34.13636 | 134.52377 | 39139 ft | 580 kts | 76° |
| 2026-05-08 23:17 | 34.14993 | 134.59929 | 39139 ft | 579 kts | 76° |
| 2026-05-08 23:17 | 34.16686 | 134.69397 | 39113 ft | 580 kts | 78° |
| 2026-05-08 23:18 | 34.18394 | 134.78987 | 39116 ft | 580 kts | 77° |
| 2026-05-08 23:18 | 34.20077 | 134.88486 | 39110 ft | 579 kts | 78° |
| 2026-05-08 23:19 | 34.21753 | 134.97983 | 39107 ft | 582 kts | 78° |
| 2026-05-08 23:19 | 34.23396 | 135.07573 | 39114 ft | 579 kts | 78° |
| 2026-05-08 23:20 | 34.25016 | 135.17163 | 39116 ft | 580 kts | 78° |
| 2026-05-08 23:20 | 34.26614 | 135.26666 | 39121 ft | 579 kts | 77° |
| 2026-05-08 23:21 | 34.28226 | 135.36284 | 39111 ft | 580 kts | 78° |
| 2026-05-08 23:21 | 34.29807 | 135.45773 | 39118 ft | 579 kts | 77° |
| 2026-05-08 23:22 | 34.31404 | 135.55397 | 39115 ft | 579 kts | 78° |
| 2026-05-08 23:22 | 34.32986 | 135.64978 | 39119 ft | 579 kts | 78° |
| 2026-05-08 23:23 | 34.34547 | 135.74481 | 39097 ft | 578 kts | 79° |
| 2026-05-08 23:23 | 34.36111 | 135.84052 | 39089 ft | 578 kts | 79° |
| 2026-05-08 23:24 | 34.37671 | 135.93643 | 39075 ft | 577 kts | 79° |
| 2026-05-08 23:24 | 34.39213 | 136.03178 | 39068 ft | 577 kts | 78° |
| 2026-05-08 23:25 | 34.40762 | 136.12804 | 39091 ft | 578 kts | 79° |
| 2026-05-08 23:25 | 34.42289 | 136.22343 | 39056 ft | 578 kts | 79° |
| 2026-05-08 23:26 | 34.43822 | 136.31976 | 39078 ft | 579 kts | 79° |
| 2026-05-08 23:26 | 34.45329 | 136.41498 | 39087 ft | 577 kts | 79° |
| 2026-05-08 23:27 | 34.46850 | 136.51155 | 39074 ft | 577 kts | 79° |
| 2026-05-08 23:27 | 34.48347 | 136.60706 | 39087 ft | 577 kts | 79° |
| 2026-05-08 23:28 | 34.49829 | 136.70218 | 39052 ft | 577 kts | 80° |
| 2026-05-08 23:28 | 34.51309 | 136.79767 | 39041 ft | 576 kts | 80° |
| 2026-05-08 23:29 | 34.52781 | 136.89317 | 39035 ft | 577 kts | 81° |
| 2026-05-08 23:29 | 34.53842 | 136.98885 | 39022 ft | 573 kts | 91° |
| 2026-05-08 23:30 | 34.53963 | 137.08507 | 39029 ft | 574 kts | 92° |
| 2026-05-08 23:30 | 34.54034 | 137.18047 | 39027 ft | 572 kts | 92° |
| 2026-05-08 23:31 | 34.54096 | 137.27380 | 39008 ft | 570 kts | 92° |
| 2026-05-08 23:31 | 34.54149 | 137.36281 | 39007 ft | 571 kts | 93° |
| 2026-05-08 23:32 | 34.54191 | 137.44394 | 39010 ft | 570 kts | 92° |
| 2026-05-08 23:32 | 34.54234 | 137.54279 | 39007 ft | 571 kts | 92° |
| 2026-05-08 23:33 | 34.54269 | 137.63629 | 39000 ft | 571 kts | 92° |
| 2026-05-08 23:33 | 34.54296 | 137.72876 | 38989 ft | 570 kts | 94° |
| 2026-05-08 23:34 | 34.54317 | 137.82480 | 38981 ft | 566 kts | 93° |
| 2026-05-08 23:34 | 34.54329 | 137.92017 | 38953 ft | 569 kts | 94° |
| 2026-05-08 23:35 | 34.54334 | 138.01576 | 38965 ft | 571 kts | 94° |
| 2026-05-08 23:35 | 34.54324 | 138.11197 | 38934 ft | 568 kts | 93° |
| 2026-05-08 23:36 | 34.54301 | 138.20723 | 38933 ft | 566 kts | 92° |
| 2026-05-08 23:36 | 34.54275 | 138.30258 | 38932 ft | 570 kts | 92° |
| 2026-05-08 23:37 | 34.55407 | 138.39778 | 38928 ft | 568 kts | 73° |
| 2026-05-08 23:37 | 34.58446 | 138.48634 | 38926 ft | 570 kts | 61° |
| 2026-05-08 23:38 | 34.61984 | 138.57205 | 38931 ft | 566 kts | 60° |
| 2026-05-08 23:38 | 34.64798 | 138.64018 | 38898 ft | 565 kts | 61° |
| 2026-05-08 23:39 | 34.67468 | 138.70500 | 38909 ft | 568 kts | 61° |
| 2026-05-08 23:39 | 34.70459 | 138.79396 | 38890 ft | 569 kts | 76° |
| 2026-05-08 23:40 | 34.71240 | 138.84103 | 38750 ft | 560 kts | 84° |
| 2026-05-08 23:40 | 34.71552 | 138.88823 | 37802 ft | 570 kts | 92° |
| 2026-05-08 23:40 | 34.71569 | 138.93716 | 36334 ft | 590 kts | 95° |
| 2026-05-08 23:40 | 34.71536 | 138.98685 | 35190 ft | 605 kts | 95° |
| 2026-05-08 23:41 | 34.71501 | 139.03752 | 34255 ft | 617 kts | 95° |
| 2026-05-08 23:41 | 34.71467 | 139.08949 | 33565 ft | 618 kts | 94° |
| 2026-05-08 23:41 | 34.71436 | 139.14117 | 33379 ft | 610 kts | 95° |
| 2026-05-08 23:41 | 34.71405 | 139.19194 | 33364 ft | 601 kts | 94° |
| 2026-05-08 23:42 | 34.71372 | 139.24275 | 33180 ft | 597 kts | 95° |
| 2026-05-08 23:42 | 34.71336 | 139.29318 | 32911 ft | 595 kts | 95° |
| 2026-05-08 23:42 | 34.71298 | 139.34329 | 32684 ft | 593 kts | 95° |
| 2026-05-08 23:42 | 34.71260 | 139.39307 | 32469 ft | 590 kts | 95° |
| 2026-05-08 23:43 | 34.71247 | 139.44284 | 32267 ft | 589 kts | 92° |
| 2026-05-08 23:43 | 34.71390 | 139.49248 | 32087 ft | 586 kts | 92° |
| 2026-05-08 23:43 | 34.71556 | 139.54208 | 31871 ft | 584 kts | 91° |
| 2026-05-08 23:43 | 34.71719 | 139.59134 | 31591 ft | 584 kts | 92° |
| 2026-05-08 23:44 | 34.71876 | 139.64066 | 31412 ft | 581 kts | 92° |
| 2026-05-08 23:44 | 34.72026 | 139.68962 | 31223 ft | 578 kts | 92° |
| 2026-05-08 23:44 | 34.72171 | 139.73808 | 30913 ft | 578 kts | 92° |
| 2026-05-08 23:44 | 34.72314 | 139.78711 | 30662 ft | 576 kts | 92° |
| 2026-05-08 23:45 | 34.72453 | 139.83572 | 30509 ft | 573 kts | 93° |
| 2026-05-08 23:45 | 34.72587 | 139.88342 | 30372 ft | 570 kts | 92° |
| 2026-05-08 23:45 | 34.72719 | 139.93176 | 30174 ft | 568 kts | 93° |
| 2026-05-08 23:45 | 34.72847 | 139.97943 | 29990 ft | 566 kts | 92° |
| 2026-05-08 23:46 | 34.72972 | 140.02693 | 29810 ft | 564 kts | 93° |
| 2026-05-08 23:46 | 34.73111 | 140.07431 | 29666 ft | 562 kts | 90° |
| 2026-05-08 23:46 | 34.74664 | 140.16730 | 29423 ft | 565 kts | 72° |
| 2026-05-08 23:47 | 34.76201 | 140.21109 | 29171 ft | 567 kts | 63° |
| 2026-05-08 23:47 | 34.78063 | 140.25301 | 28975 ft | 566 kts | 60° |
| 2026-05-08 23:47 | 34.80143 | 140.29327 | 28800 ft | 564 kts | 52° |
| 2026-05-08 23:47 | 34.82651 | 140.32993 | 28608 ft | 561 kts | 43° |
| 2026-05-08 23:48 | 34.88527 | 140.38925 | 28614 ft | 544 kts | 30° |
| 2026-05-08 23:48 | 34.91726 | 140.41368 | 28641 ft | 531 kts | 20° |
| 2026-05-08 23:48 | 34.95036 | 140.43167 | 28665 ft | 516 kts | 11° |
| 2026-05-08 23:49 | 34.98267 | 140.44299 | 28686 ft | 500 kts | 1° |
| 2026-05-08 23:49 | 35.01595 | 140.44867 | 28706 ft | 483 kts | 352° |
| 2026-05-08 23:49 | 35.04805 | 140.44836 | 28728 ft | 465 kts | 342° |
| 2026-05-08 23:49 | 35.07652 | 140.44338 | 28684 ft | 445 kts | 334° |
| 2026-05-08 23:50 | 35.10091 | 140.43604 | 28126 ft | 437 kts | 330° |
| 2026-05-08 23:50 | 35.13064 | 140.42529 | 27042 ft | 430 kts | 329° |
| 2026-05-08 23:50 | 35.15860 | 140.41490 | 26337 ft | 416 kts | 328° |
| 2026-05-08 23:50 | 35.16667 | 140.41176 | 26131 ft | 412 kts | 328° |